sensor_id;sensor_type;location;lat;lon;timestamp;temperature;humidity
35373;DHT22;21476;51.652;7.852;2022-09-03T00:01:47;16.00;99.90
35373;DHT22;21476;51.652;7.852;2022-09-03T00:04:24;15.90;99.90
35373;DHT22;21476;51.652;7.852;2022-09-03T00:07:10;15.90;99.90
35373;DHT22;21476;51.652;7.852;2022-09-03T00:09:42;15.80;99.90
35373;DHT22;21476;51.652;7.852;2022-09-03T00:15:06;15.80;99.90
35373;DHT22;21476;51.652;7.852;2022-09-03T00:17:34;15.80;99.90
35373;DHT22;21476;51.652;7.852;2022-09-03T00:20:05;15.80;99.90
35373;DHT22;21476;51.652;7.852;2022-09-03T00:22:46;15.80;99.90
35373;DHT22;21476;51.652;7.852;2022-09-03T00:25:18;15.80;99.90
35373;DHT22;21476;51.652;7.852;2022-09-03T00:27:48;15.80;99.90
35373;DHT22;21476;51.652;7.852;2022-09-03T00:30:16;15.70;99.90
35373;DHT22;21476;51.652;7.852;2022-09-03T00:33:08;15.70;99.90
35373;DHT22;21476;51.652;7.852;2022-09-03T00:35:42;15.70;99.90
35373;DHT22;21476;51.652;7.852;2022-09-03T00:38:09;15.50;99.90
35373;DHT22;21476;51.652;7.852;2022-09-03T00:43:53;15.50;99.90
35373;DHT22;21476;51.652;7.852;2022-09-03T00:46:30;15.40;99.90
35373;DHT22;21476;51.652;7.852;2022-09-03T01:00:32;15.40;99.90
35373;DHT22;21476;51.652;7.852;2022-09-03T01:05:55;15.30;99.90
35373;DHT22;21476;51.652;7.852;2022-09-03T01:11:31;15.30;99.90
35373;DHT22;21476;51.652;7.852;2022-09-03T01:17:13;15.20;99.90
35373;DHT22;21476;51.652;7.852;2022-09-03T01:25:16;15.00;99.90
35373;DHT22;21476;51.652;7.852;2022-09-03T01:30:16;14.90;99.90
35373;DHT22;21476;51.652;7.852;2022-09-03T01:41:50;14.80;99.90
35373;DHT22;21476;51.652;7.852;2022-09-03T01:47:59;14.80;99.90
35373;DHT22;21476;51.652;7.852;2022-09-03T01:50:38;14.80;99.90
35373;DHT22;21476;51.652;7.852;2022-09-03T01:56:16;14.60;99.90
35373;DHT22;21476;51.652;7.852;2022-09-03T01:59:08;14.60;99.90
35373;DHT22;21476;51.652;7.852;2022-09-03T02:01:40;14.60;99.90
35373;DHT22;21476;51.652;7.852;2022-09-03T02:04:20;14.50;99.90
35373;DHT22;21476;51.652;7.852;2022-09-03T02:06:49;14.50;99.90
35373;DHT22;21476;51.652;7.852;2022-09-03T02:09:18;14.50;99.90
35373;DHT22;21476;51.652;7.852;2022-09-03T02:11:52;14.50;99.90
35373;DHT22;21476;51.652;7.852;2022-09-03T02:14:20;14.30;99.90
35373;DHT22;21476;51.652;7.852;2022-09-03T02:16:46;14.40;99.90
35373;DHT22;21476;51.652;7.852;2022-09-03T02:19:15;14.30;99.90
35373;DHT22;21476;51.652;7.852;2022-09-03T02:21:48;14.40;99.90
35373;DHT22;21476;51.652;7.852;2022-09-03T02:24:15;14.40;99.90
35373;DHT22;21476;51.652;7.852;2022-09-03T02:26:40;14.40;99.90
35373;DHT22;21476;51.652;7.852;2022-09-03T02:29:06;14.30;99.90
35373;DHT22;21476;51.652;7.852;2022-09-03T02:31:32;14.30;99.90
35373;DHT22;21476;51.652;7.852;2022-09-03T02:33:58;14.30;99.90
35373;DHT22;21476;51.652;7.852;2022-09-03T02:36:31;14.20;99.90
35373;DHT22;21476;51.652;7.852;2022-09-03T02:38:57;14.20;99.90
35373;DHT22;21476;51.652;7.852;2022-09-03T02:41:23;14.20;99.90
35373;DHT22;21476;51.652;7.852;2022-09-03T02:47:00;14.20;99.90
35373;DHT22;21476;51.652;7.852;2022-09-03T02:49:27;14.20;99.90
35373;DHT22;21476;51.652;7.852;2022-09-03T02:52:01;14.10;99.90
35373;DHT22;21476;51.652;7.852;2022-09-03T02:54:29;14.10;99.90
35373;DHT22;21476;51.652;7.852;2022-09-03T02:56:57;14.10;99.90
35373;DHT22;21476;51.652;7.852;2022-09-03T02:59:24;14.10;99.90
35373;DHT22;21476;51.652;7.852;2022-09-03T03:01:53;14.10;99.90
35373;DHT22;21476;51.652;7.852;2022-09-03T03:04:20;14.10;99.90
35373;DHT22;21476;51.652;7.852;2022-09-03T03:06:46;14.10;99.90
35373;DHT22;21476;51.652;7.852;2022-09-03T03:09:11;14.20;99.90
35373;DHT22;21476;51.652;7.852;2022-09-03T03:11:37;14.20;99.90
35373;DHT22;21476;51.652;7.852;2022-09-03T03:14:04;14.20;99.90
35373;DHT22;21476;51.652;7.852;2022-09-03T03:16:30;14.10;99.90
35373;DHT22;21476;51.652;7.852;2022-09-03T03:18:56;14.00;99.90
35373;DHT22;21476;51.652;7.852;2022-09-03T03:21:22;14.00;99.90
35373;DHT22;21476;51.652;7.852;2022-09-03T03:23:47;14.00;99.90
35373;DHT22;21476;51.652;7.852;2022-09-03T03:26:17;14.00;99.90
35373;DHT22;21476;51.652;7.852;2022-09-03T03:28:43;13.90;99.90
35373;DHT22;21476;51.652;7.852;2022-09-03T03:31:16;13.80;99.90
35373;DHT22;21476;51.652;7.852;2022-09-03T03:33:42;13.90;99.90
35373;DHT22;21476;51.652;7.852;2022-09-03T03:36:13;13.90;99.90
35373;DHT22;21476;51.652;7.852;2022-09-03T03:38:40;13.80;99.90
35373;DHT22;21476;51.652;7.852;2022-09-03T03:43:40;13.60;99.90
35373;DHT22;21476;51.652;7.852;2022-09-03T03:46:06;13.60;99.90
35373;DHT22;21476;51.652;7.852;2022-09-03T03:48:32;13.60;99.90
35373;DHT22;21476;51.652;7.852;2022-09-03T03:51:06;13.50;99.90
35373;DHT22;21476;51.652;7.852;2022-09-03T03:53:36;13.60;99.90
35373;DHT22;21476;51.652;7.852;2022-09-03T03:56:07;13.60;99.90
35373;DHT22;21476;51.652;7.852;2022-09-03T03:58:34;13.70;99.90
35373;DHT22;21476;51.652;7.852;2022-09-03T04:01:06;13.70;99.90
35373;DHT22;21476;51.652;7.852;2022-09-03T04:03:33;13.60;99.90
35373;DHT22;21476;51.652;7.852;2022-09-03T04:05:59;13.60;99.90
35373;DHT22;21476;51.652;7.852;2022-09-03T04:08:26;13.60;99.90
35373;DHT22;21476;51.652;7.852;2022-09-03T04:10:52;13.60;99.90
35373;DHT22;21476;51.652;7.852;2022-09-03T04:13:18;13.60;99.90
35373;DHT22;21476;51.652;7.852;2022-09-03T04:15:44;13.60;99.90
35373;DHT22;21476;51.652;7.852;2022-09-03T04:18:09;13.60;99.90
35373;DHT22;21476;51.652;7.852;2022-09-03T04:20:36;13.50;99.90
35373;DHT22;21476;51.652;7.852;2022-09-03T04:23:02;13.50;99.90
35373;DHT22;21476;51.652;7.852;2022-09-03T04:25:28;13.50;99.90
35373;DHT22;21476;51.652;7.852;2022-09-03T04:27:53;13.50;99.90
35373;DHT22;21476;51.652;7.852;2022-09-03T04:30:20;13.50;99.90
35373;DHT22;21476;51.652;7.852;2022-09-03T04:32:49;13.50;99.90
35373;DHT22;21476;51.652;7.852;2022-09-03T04:35:18;13.50;99.90
35373;DHT22;21476;51.652;7.852;2022-09-03T04:37:45;13.50;99.90
35373;DHT22;21476;51.652;7.852;2022-09-03T04:40:11;13.40;99.90
35373;DHT22;21476;51.652;7.852;2022-09-03T04:42:37;13.40;99.90
35373;DHT22;21476;51.652;7.852;2022-09-03T04:45:03;13.40;99.90
35373;DHT22;21476;51.652;7.852;2022-09-03T04:47:28;13.40;99.90
35373;DHT22;21476;51.652;7.852;2022-09-03T04:49:54;13.40;99.90
35373;DHT22;21476;51.652;7.852;2022-09-03T04:52:20;13.50;99.90
35373;DHT22;21476;51.652;7.852;2022-09-03T04:54:46;13.50;99.90
35373;DHT22;21476;51.652;7.852;2022-09-03T04:57:11;13.50;99.90
35373;DHT22;21476;51.652;7.852;2022-09-03T04:59:38;13.50;99.90
35373;DHT22;21476;51.652;7.852;2022-09-03T05:02:05;13.60;99.90
35373;DHT22;21476;51.652;7.852;2022-09-03T05:04:31;14.10;99.90
35373;DHT22;21476;51.652;7.852;2022-09-03T05:06:56;14.40;99.90
35373;DHT22;21476;51.652;7.852;2022-09-03T05:09:22;14.80;99.90
35373;DHT22;21476;51.652;7.852;2022-09-03T05:11:48;15.30;99.90
35373;DHT22;21476;51.652;7.852;2022-09-03T05:14:13;15.60;99.90
35373;DHT22;21476;51.652;7.852;2022-09-03T05:16:39;16.00;99.90
35373;DHT22;21476;51.652;7.852;2022-09-03T05:19:05;16.10;99.90
35373;DHT22;21476;51.652;7.852;2022-09-03T05:21:33;16.40;99.90
35373;DHT22;21476;51.652;7.852;2022-09-03T05:24:01;16.80;99.90
35373;DHT22;21476;51.652;7.852;2022-09-03T05:26:29;17.10;99.90
35373;DHT22;21476;51.652;7.852;2022-09-03T05:29:00;17.40;99.90
35373;DHT22;21476;51.652;7.852;2022-09-03T05:31:29;17.80;99.90
35373;DHT22;21476;51.652;7.852;2022-09-03T05:33:58;18.00;99.90
35373;DHT22;21476;51.652;7.852;2022-09-03T05:36:26;18.10;99.90
35373;DHT22;21476;51.652;7.852;2022-09-03T05:38:53;18.50;99.90
35373;DHT22;21476;51.652;7.852;2022-09-03T05:41:19;19.00;99.90
35373;DHT22;21476;51.652;7.852;2022-09-03T05:43:51;19.50;99.90
35373;DHT22;21476;51.652;7.852;2022-09-03T05:46:21;19.60;99.90
35373;DHT22;21476;51.652;7.852;2022-09-03T05:48:48;19.80;99.90
35373;DHT22;21476;51.652;7.852;2022-09-03T05:51:16;20.00;99.90
35373;DHT22;21476;51.652;7.852;2022-09-03T05:53:44;20.00;99.90
35373;DHT22;21476;51.652;7.852;2022-09-03T05:56:13;20.00;99.90
35373;DHT22;21476;51.652;7.852;2022-09-03T05:58:41;19.40;99.90
35373;DHT22;21476;51.652;7.852;2022-09-03T06:01:13;18.80;99.90
35373;DHT22;21476;51.652;7.852;2022-09-03T06:03:40;18.20;99.90
35373;DHT22;21476;51.652;7.852;2022-09-03T06:06:07;17.80;99.90
35373;DHT22;21476;51.652;7.852;2022-09-03T06:08:34;17.70;99.90
35373;DHT22;21476;51.652;7.852;2022-09-03T06:11:00;17.50;99.90
35373;DHT22;21476;51.652;7.852;2022-09-03T06:13:27;17.50;99.90
35373;DHT22;21476;51.652;7.852;2022-09-03T06:15:57;17.40;99.90
35373;DHT22;21476;51.652;7.852;2022-09-03T06:18:24;17.50;99.90
35373;DHT22;21476;51.652;7.852;2022-09-03T06:21:08;17.60;99.90
35373;DHT22;21476;51.652;7.852;2022-09-03T06:23:34;17.80;99.90
35373;DHT22;21476;51.652;7.852;2022-09-03T06:26:11;18.00;99.90
35373;DHT22;21476;51.652;7.852;2022-09-03T06:28:39;17.90;99.90
35373;DHT22;21476;51.652;7.852;2022-09-03T06:31:09;17.90;99.90
35373;DHT22;21476;51.652;7.852;2022-09-03T06:33:36;18.00;99.90
35373;DHT22;21476;51.652;7.852;2022-09-03T06:36:04;17.90;99.90
35373;DHT22;21476;51.652;7.852;2022-09-03T06:38:31;17.90;99.90
35373;DHT22;21476;51.652;7.852;2022-09-03T06:40:59;18.20;99.90
35373;DHT22;21476;51.652;7.852;2022-09-03T06:43:31;18.30;99.90
35373;DHT22;21476;51.652;7.852;2022-09-03T06:46:03;18.50;99.90
35373;DHT22;21476;51.652;7.852;2022-09-03T06:48:31;18.50;99.90
35373;DHT22;21476;51.652;7.852;2022-09-03T06:50:58;18.60;99.90
35373;DHT22;21476;51.652;7.852;2022-09-03T06:53:35;18.70;99.90
35373;DHT22;21476;51.652;7.852;2022-09-03T06:56:07;18.90;99.90
35373;DHT22;21476;51.652;7.852;2022-09-03T06:58:35;19.00;99.90
35373;DHT22;21476;51.652;7.852;2022-09-03T07:01:04;19.20;99.90
35373;DHT22;21476;51.652;7.852;2022-09-03T07:03:33;19.20;99.90
35373;DHT22;21476;51.652;7.852;2022-09-03T07:06:21;19.40;99.90
35373;DHT22;21476;51.652;7.852;2022-09-03T07:08:46;19.30;99.90
35373;DHT22;21476;51.652;7.852;2022-09-03T07:11:15;19.40;99.90
35373;DHT22;21476;51.652;7.852;2022-09-03T07:13:43;19.40;99.90
35373;DHT22;21476;51.652;7.852;2022-09-03T07:16:18;19.50;99.90
35373;DHT22;21476;51.652;7.852;2022-09-03T07:18:44;19.60;99.90
35373;DHT22;21476;51.652;7.852;2022-09-03T07:21:12;19.70;99.90
35373;DHT22;21476;51.652;7.852;2022-09-03T07:23:39;20.00;99.90
35373;DHT22;21476;51.652;7.852;2022-09-03T07:26:48;20.00;99.90
35373;DHT22;21476;51.652;7.852;2022-09-03T07:28:55;19.90;99.90
35373;DHT22;21476;51.652;7.852;2022-09-03T07:31:23;19.80;99.90
35373;DHT22;21476;51.652;7.852;2022-09-03T07:33:53;19.80;99.90
35373;DHT22;21476;51.652;7.852;2022-09-03T07:36:20;20.10;99.90
35373;DHT22;21476;51.652;7.852;2022-09-03T07:38:46;20.20;99.90
35373;DHT22;21476;51.652;7.852;2022-09-03T07:41:13;20.40;99.90
35373;DHT22;21476;51.652;7.852;2022-09-03T07:43:44;20.40;99.90
35373;DHT22;21476;51.652;7.852;2022-09-03T07:46:18;20.30;99.90
35373;DHT22;21476;51.652;7.852;2022-09-03T07:48:52;20.50;99.90
35373;DHT22;21476;51.652;7.852;2022-09-03T07:51:19;20.50;99.90
35373;DHT22;21476;51.652;7.852;2022-09-03T07:53:46;20.90;99.90
35373;DHT22;21476;51.652;7.852;2022-09-03T07:56:12;21.00;99.90
35373;DHT22;21476;51.652;7.852;2022-09-03T07:58:38;21.10;99.90
35373;DHT22;21476;51.652;7.852;2022-09-03T08:01:13;21.20;99.90
35373;DHT22;21476;51.652;7.852;2022-09-03T08:03:44;21.40;99.90
35373;DHT22;21476;51.652;7.852;2022-09-03T08:06:10;21.60;99.90
35373;DHT22;21476;51.652;7.852;2022-09-03T08:08:36;21.50;99.90
35373;DHT22;21476;51.652;7.852;2022-09-03T08:11:06;21.40;99.90
35373;DHT22;21476;51.652;7.852;2022-09-03T08:13:44;21.60;99.90
35373;DHT22;21476;51.652;7.852;2022-09-03T08:16:12;21.70;99.90
35373;DHT22;21476;51.652;7.852;2022-09-03T08:18:39;21.80;99.90
35373;DHT22;21476;51.652;7.852;2022-09-03T08:21:12;21.70;99.90
35373;DHT22;21476;51.652;7.852;2022-09-03T08:23:45;22.30;99.90
35373;DHT22;21476;51.652;7.852;2022-09-03T08:26:12;22.50;99.80
35373;DHT22;21476;51.652;7.852;2022-09-03T08:28:39;22.60;99.90
35373;DHT22;21476;51.652;7.852;2022-09-03T08:33:31;23.00;99.60
35373;DHT22;21476;51.652;7.852;2022-09-03T08:36:07;22.80;99.30
35373;DHT22;21476;51.652;7.852;2022-09-03T08:38:34;22.40;99.60
35373;DHT22;21476;51.652;7.852;2022-09-03T08:41:26;22.10;99.90
35373;DHT22;21476;51.652;7.852;2022-09-03T08:46:50;21.80;99.90
35373;DHT22;21476;51.652;7.852;2022-09-03T08:49:23;21.70;99.90
35373;DHT22;21476;51.652;7.852;2022-09-03T08:51:51;21.30;99.90
35373;DHT22;21476;51.652;7.852;2022-09-03T08:54:21;21.30;99.90
35373;DHT22;21476;51.652;7.852;2022-09-03T08:56:48;21.40;99.90
35373;DHT22;21476;51.652;7.852;2022-09-03T08:59:14;21.50;99.90
35373;DHT22;21476;51.652;7.852;2022-09-03T09:02:17;21.40;99.90
35373;DHT22;21476;51.652;7.852;2022-09-03T09:05:01;21.70;99.90
35373;DHT22;21476;51.652;7.852;2022-09-03T09:10:27;22.20;99.90
35373;DHT22;21476;51.652;7.852;2022-09-03T09:13:19;22.10;99.90
35373;DHT22;21476;51.652;7.852;2022-09-03T09:16:01;22.20;99.90
35373;DHT22;21476;51.652;7.852;2022-09-03T09:21:30;22.00;99.90
35373;DHT22;21476;51.652;7.852;2022-09-03T09:24:05;22.00;99.90
35373;DHT22;21476;51.652;7.852;2022-09-03T09:26:36;22.10;99.90
35373;DHT22;21476;51.652;7.852;2022-09-03T09:29:08;22.20;99.80
35373;DHT22;21476;51.652;7.852;2022-09-03T09:31:36;22.10;99.90
35373;DHT22;21476;51.652;7.852;2022-09-03T09:34:05;22.10;99.90
35373;DHT22;21476;51.652;7.852;2022-09-03T09:36:43;22.10;99.90
35373;DHT22;21476;51.652;7.852;2022-09-03T09:39:11;22.00;99.90
35373;DHT22;21476;51.652;7.852;2022-09-03T09:41:40;22.20;99.90
35373;DHT22;21476;51.652;7.852;2022-09-03T09:44:06;22.60;99.90
35373;DHT22;21476;51.652;7.852;2022-09-03T09:46:37;22.90;99.40
35373;DHT22;21476;51.652;7.852;2022-09-03T09:49:21;23.10;98.70
35373;DHT22;21476;51.652;7.852;2022-09-03T09:52:03;23.10;98.90
35373;DHT22;21476;51.652;7.852;2022-09-03T09:54:29;23.90;98.40
35373;DHT22;21476;51.652;7.852;2022-09-03T09:57:00;23.90;98.20
35373;DHT22;21476;51.652;7.852;2022-09-03T09:59:28;24.10;97.60
35373;DHT22;21476;51.652;7.852;2022-09-03T10:02:06;24.00;97.40
35373;DHT22;21476;51.652;7.852;2022-09-03T10:04:33;24.00;98.00
35373;DHT22;21476;51.652;7.852;2022-09-03T10:07:15;24.60;97.40
35373;DHT22;21476;51.652;7.852;2022-09-03T10:09:44;24.90;96.90
35373;DHT22;21476;51.652;7.852;2022-09-03T10:12:23;24.80;96.20
35373;DHT22;21476;51.652;7.852;2022-09-03T10:17:41;24.00;96.50
35373;DHT22;21476;51.652;7.852;2022-09-03T10:20:41;24.60;96.60
35373;DHT22;21476;51.652;7.852;2022-09-03T10:23:24;24.60;96.20
35373;DHT22;21476;51.652;7.852;2022-09-03T10:26:21;25.00;95.90
35373;DHT22;21476;51.652;7.852;2022-09-03T10:28:57;25.60;95.40
35373;DHT22;21476;51.652;7.852;2022-09-03T10:43:08;25.70;95.00
35373;DHT22;21476;51.652;7.852;2022-09-03T10:56:02;25.90;94.20
35373;DHT22;21476;51.652;7.852;2022-09-03T10:58:40;26.20;93.80
35373;DHT22;21476;51.652;7.852;2022-09-03T11:01:31;26.40;93.60
35373;DHT22;21476;51.652;7.852;2022-09-03T11:06:56;26.40;93.30
35373;DHT22;21476;51.652;7.852;2022-09-03T11:09:45;26.10;93.20
35373;DHT22;21476;51.652;7.852;2022-09-03T11:12:20;25.70;93.60
35373;DHT22;21476;51.652;7.852;2022-09-03T11:15:08;25.80;94.00
35373;DHT22;21476;51.652;7.852;2022-09-03T11:17:51;25.60;93.80
35373;DHT22;21476;51.652;7.852;2022-09-03T11:20:23;25.40;93.90
35373;DHT22;21476;51.652;7.852;2022-09-03T11:22:53;25.20;94.40
35373;DHT22;21476;51.652;7.852;2022-09-03T11:25:23;25.50;94.40
35373;DHT22;21476;51.652;7.852;2022-09-03T11:30:27;26.00;93.80
35373;DHT22;21476;51.652;7.852;2022-09-03T11:32:57;26.00;93.40
35373;DHT22;21476;51.652;7.852;2022-09-03T11:38:26;26.00;93.60
35373;DHT22;21476;51.652;7.852;2022-09-03T11:48:48;26.80;92.60
35373;DHT22;21476;51.652;7.852;2022-09-03T11:56:38;26.50;92.40
35373;DHT22;21476;51.652;7.852;2022-09-03T12:01:59;26.60;92.50
35373;DHT22;21476;51.652;7.852;2022-09-03T12:15:41;26.10;93.00
35373;DHT22;21476;51.652;7.852;2022-09-03T12:18:15;26.00;93.60
35373;DHT22;21476;51.652;7.852;2022-09-03T12:21:07;26.20;93.40
35373;DHT22;21476;51.652;7.852;2022-09-03T12:23:38;26.20;93.70
35373;DHT22;21476;51.652;7.852;2022-09-03T12:26:07;26.30;93.70
35373;DHT22;21476;51.652;7.852;2022-09-03T12:28:37;26.40;93.80
35373;DHT22;21476;51.652;7.852;2022-09-03T12:31:13;26.30;93.70
35373;DHT22;21476;51.652;7.852;2022-09-03T12:34:10;26.00;93.80
35373;DHT22;21476;51.652;7.852;2022-09-03T12:36:37;25.90;94.40
35373;DHT22;21476;51.652;7.852;2022-09-03T12:39:17;25.50;95.00
35373;DHT22;21476;51.652;7.852;2022-09-03T12:42:05;25.40;95.20
35373;DHT22;21476;51.652;7.852;2022-09-03T12:47:05;25.00;95.70
35373;DHT22;21476;51.652;7.852;2022-09-03T12:49:41;25.00;95.80
35373;DHT22;21476;51.652;7.852;2022-09-03T12:52:29;25.00;96.30
35373;DHT22;21476;51.652;7.852;2022-09-03T12:55:00;25.20;96.10
35373;DHT22;21476;51.652;7.852;2022-09-03T12:57:38;25.20;95.90
35373;DHT22;21476;51.652;7.852;2022-09-03T13:00:09;25.10;95.80
35373;DHT22;21476;51.652;7.852;2022-09-03T13:03:01;25.00;96.50
35373;DHT22;21476;51.652;7.852;2022-09-03T13:05:50;25.10;96.00
35373;DHT22;21476;51.652;7.852;2022-09-03T13:08:26;25.00;96.30
35373;DHT22;21476;51.652;7.852;2022-09-03T13:10:59;25.10;96.30
35373;DHT22;21476;51.652;7.852;2022-09-03T13:13:35;25.20;96.20
35373;DHT22;21476;51.652;7.852;2022-09-03T13:24:12;25.60;95.60
35373;DHT22;21476;51.652;7.852;2022-09-03T13:31:59;25.60;95.70
35373;DHT22;21476;51.652;7.852;2022-09-03T13:34:41;25.50;95.50
35373;DHT22;21476;51.652;7.852;2022-09-03T13:37:26;25.60;95.80
35373;DHT22;21476;51.652;7.852;2022-09-03T13:39:56;25.60;95.70
35373;DHT22;21476;51.652;7.852;2022-09-03T13:45:38;25.80;95.70
35373;DHT22;21476;51.652;7.852;2022-09-03T13:48:27;25.80;95.30
35373;DHT22;21476;51.652;7.852;2022-09-03T13:54:13;25.40;96.00
35373;DHT22;21476;51.652;7.852;2022-09-03T13:56:59;25.30;96.00
35373;DHT22;21476;51.652;7.852;2022-09-03T13:59:52;25.20;96.00
35373;DHT22;21476;51.652;7.852;2022-09-03T14:02:30;25.20;96.20
35373;DHT22;21476;51.652;7.852;2022-09-03T14:10:51;25.20;96.40
35373;DHT22;21476;51.652;7.852;2022-09-03T14:21:21;25.20;96.90
35373;DHT22;21476;51.652;7.852;2022-09-03T14:24:07;25.20;96.90
35373;DHT22;21476;51.652;7.852;2022-09-03T14:26:36;25.20;96.90
35373;DHT22;21476;51.652;7.852;2022-09-03T14:29:03;25.40;97.10
35373;DHT22;21476;51.652;7.852;2022-09-03T14:42:55;25.10;97.30
35373;DHT22;21476;51.652;7.852;2022-09-03T14:51:21;25.00;97.00
35373;DHT22;21476;51.652;7.852;2022-09-03T14:59:48;25.10;96.60
35373;DHT22;21476;51.652;7.852;2022-09-03T15:08:01;25.00;96.60
35373;DHT22;21476;51.652;7.852;2022-09-03T15:10:47;25.00;96.70
35373;DHT22;21476;51.652;7.852;2022-09-03T15:13:18;25.20;96.30
35373;DHT22;21476;51.652;7.852;2022-09-03T15:20:53;25.10;96.10
35373;DHT22;21476;51.652;7.852;2022-09-03T15:23:40;25.00;96.50
35373;DHT22;21476;51.652;7.852;2022-09-03T15:26:19;25.00;96.70
35373;DHT22;21476;51.652;7.852;2022-09-03T15:36:51;24.90;97.00
35373;DHT22;21476;51.652;7.852;2022-09-03T15:39:30;24.90;96.50
35373;DHT22;21476;51.652;7.852;2022-09-03T15:42:13;24.80;96.70
35373;DHT22;21476;51.652;7.852;2022-09-03T15:44:50;24.70;97.20
35373;DHT22;21476;51.652;7.852;2022-09-03T15:52:31;24.60;97.50
35373;DHT22;21476;51.652;7.852;2022-09-03T15:55:30;24.70;97.20
35373;DHT22;21476;51.652;7.852;2022-09-03T15:58:26;24.60;97.20
35373;DHT22;21476;51.652;7.852;2022-09-03T16:01:03;24.60;97.10
35373;DHT22;21476;51.652;7.852;2022-09-03T16:03:57;24.40;97.30
35373;DHT22;21476;51.652;7.852;2022-09-03T16:06:49;24.40;97.50
35373;DHT22;21476;51.652;7.852;2022-09-03T16:15:13;24.50;96.90
35373;DHT22;21476;51.652;7.852;2022-09-03T16:18:14;24.30;96.80
35373;DHT22;21476;51.652;7.852;2022-09-03T16:26:09;24.20;96.90
35373;DHT22;21476;51.652;7.852;2022-09-03T16:42:30;23.70;97.10
35373;DHT22;21476;51.652;7.852;2022-09-03T16:51:14;23.70;97.40
35373;DHT22;21476;51.652;7.852;2022-09-03T16:56:25;23.70;97.50
35373;DHT22;21476;51.652;7.852;2022-09-03T17:00:02;23.50;97.40
35373;DHT22;21476;51.652;7.852;2022-09-03T17:20:12;23.40;98.20
35373;DHT22;21476;51.652;7.852;2022-09-03T17:28:17;23.30;98.40
35373;DHT22;21476;51.652;7.852;2022-09-03T17:36:25;23.20;98.50
35373;DHT22;21476;51.652;7.852;2022-09-03T17:41:50;23.00;98.60
35373;DHT22;21476;51.652;7.852;2022-09-03T17:50:25;22.80;98.90
35373;DHT22;21476;51.652;7.852;2022-09-03T17:53:09;22.70;99.00
35373;DHT22;21476;51.652;7.852;2022-09-03T17:55:41;22.60;99.20
35373;DHT22;21476;51.652;7.852;2022-09-03T17:58:14;22.60;99.20
35373;DHT22;21476;51.652;7.852;2022-09-03T18:06:20;22.30;99.70
35373;DHT22;21476;51.652;7.852;2022-09-03T18:11:48;22.20;99.90
35373;DHT22;21476;51.652;7.852;2022-09-03T18:14:25;22.10;99.90
35373;DHT22;21476;51.652;7.852;2022-09-03T18:19:48;22.00;99.90
35373;DHT22;21476;51.652;7.852;2022-09-03T18:25:46;21.80;99.90
35373;DHT22;21476;51.652;7.852;2022-09-03T18:29:02;21.80;99.90
35373;DHT22;21476;51.652;7.852;2022-09-03T18:31:48;21.70;99.90
35373;DHT22;21476;51.652;7.852;2022-09-03T18:34:34;21.70;99.90
35373;DHT22;21476;51.652;7.852;2022-09-03T18:37:24;21.60;99.90
35373;DHT22;21476;51.652;7.852;2022-09-03T18:40:15;21.50;99.90
35373;DHT22;21476;51.652;7.852;2022-09-03T18:49:07;21.40;99.90
35373;DHT22;21476;51.652;7.852;2022-09-03T18:55:27;21.30;99.90
35373;DHT22;21476;51.652;7.852;2022-09-03T19:01:35;21.20;99.90
35373;DHT22;21476;51.652;7.852;2022-09-03T19:07:12;21.00;99.90
35373;DHT22;21476;51.652;7.852;2022-09-03T19:13:23;20.90;99.90
35373;DHT22;21476;51.652;7.852;2022-09-03T19:22:10;20.70;99.90
35373;DHT22;21476;51.652;7.852;2022-09-03T19:25:11;20.60;99.90
35373;DHT22;21476;51.652;7.852;2022-09-03T19:28:05;20.50;99.90
35373;DHT22;21476;51.652;7.852;2022-09-03T19:43:17;20.20;99.90
35373;DHT22;21476;51.652;7.852;2022-09-03T19:46:32;20.20;99.90
35373;DHT22;21476;51.652;7.852;2022-09-03T19:55:24;19.90;99.90
35373;DHT22;21476;51.652;7.852;2022-09-03T19:58:09;19.90;99.90
35373;DHT22;21476;51.652;7.852;2022-09-03T20:00:53;19.80;99.90
35373;DHT22;21476;51.652;7.852;2022-09-03T20:03:38;19.70;99.90
35373;DHT22;21476;51.652;7.852;2022-09-03T20:06:22;19.60;99.90
35373;DHT22;21476;51.652;7.852;2022-09-03T20:09:08;19.60;99.90
35373;DHT22;21476;51.652;7.852;2022-09-03T20:11:55;19.50;99.90
35373;DHT22;21476;51.652;7.852;2022-09-03T20:14:22;19.50;99.90
35373;DHT22;21476;51.652;7.852;2022-09-03T20:24:49;19.20;99.90
35373;DHT22;21476;51.652;7.852;2022-09-03T20:27:41;19.10;99.90
35373;DHT22;21476;51.652;7.852;2022-09-03T20:30:18;19.10;99.90
35373;DHT22;21476;51.652;7.852;2022-09-03T20:51:19;18.50;99.90
35373;DHT22;21476;51.652;7.852;2022-09-03T20:54:04;18.40;99.90
35373;DHT22;21476;51.652;7.852;2022-09-03T20:56:47;18.40;99.90
35373;DHT22;21476;51.652;7.852;2022-09-03T21:07:33;18.10;99.90
35373;DHT22;21476;51.652;7.852;2022-09-03T21:18:17;17.50;99.90
35373;DHT22;21476;51.652;7.852;2022-09-03T21:20:45;17.50;99.90
35373;DHT22;21476;51.652;7.852;2022-09-03T21:23:44;17.40;99.90
35373;DHT22;21476;51.652;7.852;2022-09-03T21:26:27;17.30;99.90
35373;DHT22;21476;51.652;7.852;2022-09-03T21:31:34;17.10;99.90
35373;DHT22;21476;51.652;7.852;2022-09-03T21:34:18;17.10;99.90
35373;DHT22;21476;51.652;7.852;2022-09-03T21:36:45;17.10;99.90
35373;DHT22;21476;51.652;7.852;2022-09-03T21:39:36;17.00;99.90
35373;DHT22;21476;51.652;7.852;2022-09-03T21:42:29;16.80;99.90
35373;DHT22;21476;51.652;7.852;2022-09-03T21:47:38;16.70;99.90
35373;DHT22;21476;51.652;7.852;2022-09-03T21:52:56;16.70;99.90
35373;DHT22;21476;51.652;7.852;2022-09-03T21:58:36;16.60;99.90
35373;DHT22;21476;51.652;7.852;2022-09-03T22:01:22;16.60;99.90
35373;DHT22;21476;51.652;7.852;2022-09-03T22:03:51;16.50;99.90
35373;DHT22;21476;51.652;7.852;2022-09-03T22:06:44;16.40;99.90
35373;DHT22;21476;51.652;7.852;2022-09-03T22:09:33;16.30;99.90
35373;DHT22;21476;51.652;7.852;2022-09-03T22:14:52;16.30;99.90
35373;DHT22;21476;51.652;7.852;2022-09-03T22:20:41;16.20;99.90
35373;DHT22;21476;51.652;7.852;2022-09-03T22:23:22;16.20;99.90
35373;DHT22;21476;51.652;7.852;2022-09-03T22:26:02;16.20;99.90
35373;DHT22;21476;51.652;7.852;2022-09-03T22:28:39;16.10;99.90
35373;DHT22;21476;51.652;7.852;2022-09-03T22:31:18;16.10;99.90
35373;DHT22;21476;51.652;7.852;2022-09-03T22:33:59;16.10;99.90
35373;DHT22;21476;51.652;7.852;2022-09-03T22:36:40;16.10;99.90
35373;DHT22;21476;51.652;7.852;2022-09-03T22:39:32;16.10;99.90
35373;DHT22;21476;51.652;7.852;2022-09-03T22:52:44;16.10;99.90
35373;DHT22;21476;51.652;7.852;2022-09-03T22:58:08;16.00;99.90
35373;DHT22;21476;51.652;7.852;2022-09-03T23:00:40;16.00;99.90
35373;DHT22;21476;51.652;7.852;2022-09-03T23:03:10;15.90;99.90
35373;DHT22;21476;51.652;7.852;2022-09-03T23:08:13;15.70;99.90
35373;DHT22;21476;51.652;7.852;2022-09-03T23:13:35;15.60;99.90